sensor_id;sensor_type;location;lat;lon;timestamp;pressure;altitude;pressure_sealevel;temperature;humidity
21504;BME280;10913;51.992;9.228;2023-05-08T00:00:15;100965.22;;;10.63;100.00
21504;BME280;10913;51.992;9.228;2023-05-08T00:02:41;100963.44;;;10.64;100.00
21504;BME280;10913;51.992;9.228;2023-05-08T00:05:08;100960.81;;;10.64;100.00
21504;BME280;10913;51.992;9.228;2023-05-08T00:07:35;100962.59;;;10.66;99.83
21504;BME280;10913;51.992;9.228;2023-05-08T00:10:02;100962.59;;;10.69;99.56
21504;BME280;10913;51.992;9.228;2023-05-08T00:12:28;100963.50;;;10.72;99.11
21504;BME280;10913;51.992;9.228;2023-05-08T00:14:55;100963.53;;;10.76;99.01
21504;BME280;10913;51.992;9.228;2023-05-08T00:17:20;100961.75;;;10.80;98.91
21504;BME280;10913;51.992;9.228;2023-05-08T00:19:46;100960.88;;;10.81;98.68
21504;BME280;10913;51.992;9.228;2023-05-08T00:22:12;100960.88;;;10.82;98.61
21504;BME280;10913;51.992;9.228;2023-05-08T00:24:37;100966.16;;;10.84;98.40
21504;BME280;10913;51.992;9.228;2023-05-08T00:27:02;100961.75;;;10.83;98.20
21504;BME280;10913;51.992;9.228;2023-05-08T00:29:28;100963.50;;;10.82;98.20
21504;BME280;10913;51.992;9.228;2023-05-08T00:31:53;100959.13;;;10.84;98.15
21504;BME280;10913;51.992;9.228;2023-05-08T00:34:18;100964.41;;;10.83;98.22
21504;BME280;10913;51.992;9.228;2023-05-08T00:36:44;100964.41;;;10.83;98.09
21504;BME280;10913;51.992;9.228;2023-05-08T00:39:09;100968.81;;;10.82;98.15
21504;BME280;10913;51.992;9.228;2023-05-08T00:41:35;100961.75;;;10.83;98.13
21504;BME280;10913;51.992;9.228;2023-05-08T00:44:00;100963.50;;;10.81;98.29
21504;BME280;10913;51.992;9.228;2023-05-08T00:46:26;100959.97;;;10.80;98.15
21504;BME280;10913;51.992;9.228;2023-05-08T00:48:52;100960.84;;;10.79;98.06
21504;BME280;10913;51.992;9.228;2023-05-08T00:51:17;100958.25;;;10.78;98.11
21504;BME280;10913;51.992;9.228;2023-05-08T00:53:43;100951.19;;;10.78;97.97
21504;BME280;10913;51.992;9.228;2023-05-08T00:56:12;100948.53;;;10.75;97.98
21504;BME280;10913;51.992;9.228;2023-05-08T00:58:38;100952.06;;;10.73;98.00
21504;BME280;10913;51.992;9.228;2023-05-08T01:01:04;100954.69;;;10.73;98.18
21504;BME280;10913;51.992;9.228;2023-05-08T01:03:31;100949.41;;;10.73;98.49
21504;BME280;10913;51.992;9.228;2023-05-08T01:05:58;100952.03;;;10.71;98.37
21504;BME280;10913;51.992;9.228;2023-05-08T01:08:24;100954.66;;;10.68;98.47
21504;BME280;10913;51.992;9.228;2023-05-08T01:25:15;100952.00;;;10.57;98.54
21504;BME280;10913;51.992;9.228;2023-05-08T01:33:09;100954.63;;;10.56;97.90
21504;BME280;10913;51.992;9.228;2023-05-08T01:35:42;100949.34;;;10.54;98.04
21504;BME280;10913;51.992;9.228;2023-05-08T01:38:34;100946.69;;;10.50;98.32
21504;BME280;10913;51.992;9.228;2023-05-08T01:41:09;100943.13;;;10.46;98.68
21504;BME280;10913;51.992;9.228;2023-05-08T01:43:58;100948.41;;;10.46;98.45
21504;BME280;10913;51.992;9.228;2023-05-08T01:46:31;100944.88;;;10.44;98.01
21504;BME280;10913;51.992;9.228;2023-05-08T01:49:07;100944.00;;;10.42;98.37
21504;BME280;10913;51.992;9.228;2023-05-08T01:51:39;100957.19;;;10.42;98.77
21504;BME280;10913;51.992;9.228;2023-05-08T01:54:08;100952.81;;;10.38;98.78
21504;BME280;10913;51.992;9.228;2023-05-08T01:56:36;100947.50;;;10.35;99.02
21504;BME280;10913;51.992;9.228;2023-05-08T01:59:05;100952.75;;;10.32;99.28
21504;BME280;10913;51.992;9.228;2023-05-08T02:01:32;100951.88;;;10.31;99.14
21504;BME280;10913;51.992;9.228;2023-05-08T02:03:58;100956.28;;;10.31;99.23
21504;BME280;10913;51.992;9.228;2023-05-08T02:06:25;100945.69;;;10.28;99.05
21504;BME280;10913;51.992;9.228;2023-05-08T02:08:52;100944.81;;;10.26;98.78
21504;BME280;10913;51.992;9.228;2023-05-08T02:11:19;100943.03;;;10.25;98.88
21504;BME280;10913;51.992;9.228;2023-05-08T02:13:47;100950.06;;;10.24;99.03
21504;BME280;10913;51.992;9.228;2023-05-08T02:16:13;100950.06;;;10.23;99.02
21504;BME280;10913;51.992;9.228;2023-05-08T02:18:43;100949.16;;;10.21;98.98
21504;BME280;10913;51.992;9.228;2023-05-08T02:21:11;100943.03;;;10.19;99.48
21504;BME280;10913;51.992;9.228;2023-05-08T02:23:38;100950.03;;;10.20;99.58
21504;BME280;10913;51.992;9.228;2023-05-08T02:26:05;100956.22;;;10.19;99.45
21504;BME280;10913;51.992;9.228;2023-05-08T02:28:32;100954.44;;;10.18;99.69
21504;BME280;10913;51.992;9.228;2023-05-08T02:30:59;100957.06;;;10.16;99.56
21504;BME280;10913;51.992;9.228;2023-05-08T02:33:26;100950.91;;;10.16;99.18
21504;BME280;10913;51.992;9.228;2023-05-08T02:35:53;100943.84;;;10.15;99.37
21504;BME280;10913;51.992;9.228;2023-05-08T02:38:20;100950.88;;;10.14;98.72
21504;BME280;10913;51.992;9.228;2023-05-08T02:40:49;100947.34;;;10.11;98.83
21504;BME280;10913;51.992;9.228;2023-05-08T02:43:16;100948.19;;;10.08;99.04
21504;BME280;10913;51.992;9.228;2023-05-08T02:45:48;100956.97;;;10.06;99.21
21504;BME280;10913;51.992;9.228;2023-05-08T02:48:21;100949.03;;;10.02;99.50
21504;BME280;10913;51.992;9.228;2023-05-08T02:51:09;100943.72;;;9.99;99.86
21504;BME280;10913;51.992;9.228;2023-05-08T02:53:50;100949.91;;;9.98;100.00
21504;BME280;10913;51.992;9.228;2023-05-08T02:56:39;100946.38;;;9.96;100.00
21504;BME280;10913;51.992;9.228;2023-05-08T02:59:56;100941.97;;;9.94;100.00
21504;BME280;10913;51.992;9.228;2023-05-08T03:02:43;100940.19;;;9.93;100.00
21504;BME280;10913;51.992;9.228;2023-05-08T03:05:24;100934.03;;;9.92;100.00
21504;BME280;10913;51.992;9.228;2023-05-08T03:07:54;100933.16;;;9.93;100.00
21504;BME280;10913;51.992;9.228;2023-05-08T03:10:27;100934.91;;;9.91;100.00
21504;BME280;10913;51.992;9.228;2023-05-08T03:12:54;100930.50;;;9.90;100.00
21504;BME280;10913;51.992;9.228;2023-05-08T03:15:26;100934.88;;;9.88;100.00
21504;BME280;10913;51.992;9.228;2023-05-08T03:17:57;100924.31;;;9.85;100.00
21504;BME280;10913;51.992;9.228;2023-05-08T03:20:31;100933.97;;;9.83;100.00
21504;BME280;10913;51.992;9.228;2023-05-08T03:22:59;100932.19;;;9.82;100.00
21504;BME280;10913;51.992;9.228;2023-05-08T03:25:28;100927.78;;;9.81;100.00
21504;BME280;10913;51.992;9.228;2023-05-08T03:27:55;100940.97;;;9.81;100.00
21504;BME280;10913;51.992;9.228;2023-05-08T03:30:22;100938.34;;;9.81;100.00
21504;BME280;10913;51.992;9.228;2023-05-08T03:32:48;100941.84;;;9.80;100.00
21504;BME280;10913;51.992;9.228;2023-05-08T03:35:15;100942.72;;;9.79;100.00
21504;BME280;10913;51.992;9.228;2023-05-08T03:37:41;100936.56;;;9.80;100.00
21504;BME280;10913;51.992;9.228;2023-05-08T03:40:08;100938.34;;;9.81;99.61
21504;BME280;10913;51.992;9.228;2023-05-08T03:42:34;100935.72;;;9.83;99.50
21504;BME280;10913;51.992;9.228;2023-05-08T03:45:01;100934.81;;;9.79;99.56
21504;BME280;10913;51.992;9.228;2023-05-08T03:47:27;100935.66;;;9.74;100.00
21504;BME280;10913;51.992;9.228;2023-05-08T03:49:53;100935.66;;;9.71;100.00
21504;BME280;10913;51.992;9.228;2023-05-08T03:52:19;100934.75;;;9.70;100.00
21504;BME280;10913;51.992;9.228;2023-05-08T03:54:44;100933.00;;;9.69;100.00
21504;BME280;10913;51.992;9.228;2023-05-08T03:57:11;100931.25;;;9.70;100.00
21504;BME280;10913;51.992;9.228;2023-05-08T04:00:09;100935.66;;;9.71;100.00
21504;BME280;10913;51.992;9.228;2023-05-08T04:07:55;100936.53;;;9.73;99.94
21504;BME280;10913;51.992;9.228;2023-05-08T04:10:38;100927.78;;;9.75;100.00
21504;BME280;10913;51.992;9.228;2023-05-08T04:13:12;100926.88;;;9.75;99.92
21504;BME280;10913;51.992;9.228;2023-05-08T04:15:43;100938.34;;;9.78;99.91
21504;BME280;10913;51.992;9.228;2023-05-08T04:18:15;100940.97;;;9.80;99.99
21504;BME280;10913;51.992;9.228;2023-05-08T04:20:42;100931.28;;;9.80;100.00
21504;BME280;10913;51.992;9.228;2023-05-08T04:23:13;100938.34;;;9.81;100.00
21504;BME280;10913;51.992;9.228;2023-05-08T04:25:41;100926.03;;;9.80;100.00
21504;BME280;10913;51.992;9.228;2023-05-08T04:28:07;100934.84;;;9.82;100.00
21504;BME280;10913;51.992;9.228;2023-05-08T04:30:33;100936.59;;;9.83;100.00
21504;BME280;10913;51.992;9.228;2023-05-08T04:33:01;100935.72;;;9.84;100.00
21504;BME280;10913;51.992;9.228;2023-05-08T04:35:28;100949.84;;;9.89;100.00
21504;BME280;10913;51.992;9.228;2023-05-08T04:37:54;100946.34;;;9.92;100.00
21504;BME280;10913;51.992;9.228;2023-05-08T04:40:19;100945.47;;;9.94;100.00
21504;BME280;10913;51.992;9.228;2023-05-08T04:42:45;100950.78;;;9.97;99.93
21504;BME280;10913;51.992;9.228;2023-05-08T04:45:11;100942.00;;;10.01;99.79
21504;BME280;10913;51.992;9.228;2023-05-08T04:47:37;100951.69;;;10.04;99.96
21504;BME280;10913;51.992;9.228;2023-05-08T04:50:03;100938.50;;;10.06;100.00
21504;BME280;10913;51.992;9.228;2023-05-08T04:52:29;100945.53;;;10.07;100.00
21504;BME280;10913;51.992;9.228;2023-05-08T04:54:54;100949.97;;;10.09;100.00
21504;BME280;10913;51.992;9.228;2023-05-08T04:57:20;100947.34;;;10.11;100.00
21504;BME280;10913;51.992;9.228;2023-05-08T04:59:45;100945.59;;;10.13;100.00
21504;BME280;10913;51.992;9.228;2023-05-08T05:02:10;100952.66;;;10.17;100.00
21504;BME280;10913;51.992;9.228;2023-05-08T05:04:36;100949.16;;;10.21;100.00
21504;BME280;10913;51.992;9.228;2023-05-08T05:07:04;100950.97;;;10.25;100.00
21504;BME280;10913;51.992;9.228;2023-05-08T05:09:30;100937.75;;;10.25;100.00
21504;BME280;10913;51.992;9.228;2023-05-08T05:11:55;100941.28;;;10.24;100.00
21504;BME280;10913;51.992;9.228;2023-05-08T05:14:21;100941.28;;;10.24;100.00
21504;BME280;10913;51.992;9.228;2023-05-08T05:16:46;100949.19;;;10.24;100.00
21504;BME280;10913;51.992;9.228;2023-05-08T05:19:12;100940.41;;;10.28;100.00
21504;BME280;10913;51.992;9.228;2023-05-08T05:21:37;100945.72;;;10.31;100.00
21504;BME280;10913;51.992;9.228;2023-05-08T05:24:04;100949.28;;;10.36;100.00
21504;BME280;10913;51.992;9.228;2023-05-08T05:26:29;100940.47;;;10.42;100.00
21504;BME280;10913;51.992;9.228;2023-05-08T05:28:55;100944.91;;;10.47;100.00
21504;BME280;10913;51.992;9.228;2023-05-08T05:31:20;100949.34;;;10.54;100.00
21504;BME280;10913;51.992;9.228;2023-05-08T05:33:46;100945.81;;;10.61;100.00
21504;BME280;10913;51.992;9.228;2023-05-08T05:36:11;100949.38;;;10.69;100.00
21504;BME280;10913;51.992;9.228;2023-05-08T05:38:36;100954.69;;;10.71;100.00
21504;BME280;10913;51.992;9.228;2023-05-08T05:41:02;100953.81;;;10.72;100.00
21504;BME280;10913;51.992;9.228;2023-05-08T05:43:27;100955.59;;;10.75;99.91
21504;BME280;10913;51.992;9.228;2023-05-08T05:45:53;100961.75;;;10.80;99.47
21504;BME280;10913;51.992;9.228;2023-05-08T05:48:20;100960.00;;;10.85;99.32
21504;BME280;10913;51.992;9.228;2023-05-08T05:50:45;100952.97;;;10.93;98.92
21504;BME280;10913;51.992;9.228;2023-05-08T05:53:11;100960.91;;;11.02;98.18
21504;BME280;10913;51.992;9.228;2023-05-08T05:55:37;100958.28;;;11.08;98.29
21504;BME280;10913;51.992;9.228;2023-05-08T05:58:02;100972.44;;;11.16;98.05
21504;BME280;10913;51.992;9.228;2023-05-08T06:00:28;100969.75;;;11.19;97.64
21504;BME280;10913;51.992;9.228;2023-05-08T06:02:55;100972.44;;;11.25;97.20
21504;BME280;10913;51.992;9.228;2023-05-08T06:05:21;100981.25;;;11.32;96.43
21504;BME280;10913;51.992;9.228;2023-05-08T06:07:47;100980.38;;;11.42;96.04
21504;BME280;10913;51.992;9.228;2023-05-08T06:10:13;100978.63;;;11.52;95.67
21504;BME280;10913;51.992;9.228;2023-05-08T06:12:38;100978.63;;;11.58;95.21
21504;BME280;10913;51.992;9.228;2023-05-08T06:15:04;100979.50;;;11.64;95.06
21504;BME280;10913;51.992;9.228;2023-05-08T06:17:29;100972.44;;;11.69;95.04
21504;BME280;10913;51.992;9.228;2023-05-08T06:19:56;100975.97;;;11.73;95.19
21504;BME280;10913;51.992;9.228;2023-05-08T06:22:22;100975.09;;;11.76;95.18
21504;BME280;10913;51.992;9.228;2023-05-08T06:24:49;100979.56;;;11.78;94.95
21504;BME280;10913;51.992;9.228;2023-05-08T06:27:17;100970.69;;;11.79;94.28
21504;BME280;10913;51.992;9.228;2023-05-08T06:29:42;100974.25;;;11.78;93.99
21504;BME280;10913;51.992;9.228;2023-05-08T06:32:08;100977.75;;;11.80;94.15
21504;BME280;10913;51.992;9.228;2023-05-08T06:34:33;100981.28;;;11.79;93.73
21504;BME280;10913;51.992;9.228;2023-05-08T06:36:58;100975.09;;;11.74;93.55
21504;BME280;10913;51.992;9.228;2023-05-08T06:39:24;100973.38;;;11.76;93.30
21504;BME280;10913;51.992;9.228;2023-05-08T06:41:49;100979.53;;;11.80;93.38
21504;BME280;10913;51.992;9.228;2023-05-08T06:44:15;100976.88;;;11.83;92.97
21504;BME280;10913;51.992;9.228;2023-05-08T06:46:40;100978.63;;;11.82;92.52
21504;BME280;10913;51.992;9.228;2023-05-08T06:49:06;100986.59;;;11.85;93.36
21504;BME280;10913;51.992;9.228;2023-05-08T06:51:32;100984.81;;;11.87;91.79
21504;BME280;10913;51.992;9.228;2023-05-08T06:53:59;100983.94;;;11.90;91.43
21504;BME280;10913;51.992;9.228;2023-05-08T06:56:25;100986.59;;;11.94;91.23
21504;BME280;10913;51.992;9.228;2023-05-08T06:58:50;100984.81;;;11.98;91.34
21504;BME280;10913;51.992;9.228;2023-05-08T07:01:16;100980.38;;;12.06;91.42
21504;BME280;10913;51.992;9.228;2023-05-08T07:03:41;100982.13;;;12.15;91.34
21504;BME280;10913;51.992;9.228;2023-05-08T07:06:07;100980.38;;;12.18;90.68
21504;BME280;10913;51.992;9.228;2023-05-08T07:08:36;100979.44;;;12.25;91.03
21504;BME280;10913;51.992;9.228;2023-05-08T07:11:02;100975.91;;;12.37;90.82
21504;BME280;10913;51.992;9.228;2023-05-08T07:13:28;100982.03;;;12.48;90.78
21504;BME280;10913;51.992;9.228;2023-05-08T07:15:53;100979.38;;;12.57;89.98
21504;BME280;10913;51.992;9.228;2023-05-08T07:18:19;100979.31;;;12.63;89.72
21504;BME280;10913;51.992;9.228;2023-05-08T07:20:44;100979.28;;;12.75;89.59
21504;BME280;10913;51.992;9.228;2023-05-08T07:23:10;100984.50;;;12.94;89.31
21504;BME280;10913;51.992;9.228;2023-05-08T07:25:35;100979.94;;;13.14;89.81
21504;BME280;10913;51.992;9.228;2023-05-08T07:28:01;100972.00;;;13.14;87.04
21504;BME280;10913;51.992;9.228;2023-05-08T07:30:26;100966.63;;;13.23;87.90
21504;BME280;10913;51.992;9.228;2023-05-08T07:32:52;100970.91;;;13.44;87.92
21504;BME280;10913;51.992;9.228;2023-05-08T07:35:17;100956.53;;;13.71;87.17
21504;BME280;10913;51.992;9.228;2023-05-08T07:37:43;100965.94;;;14.05;86.58
21504;BME280;10913;51.992;9.228;2023-05-08T07:40:09;100966.44;;;14.41;84.72
21504;BME280;10913;51.992;9.228;2023-05-08T07:42:41;100961.19;;;15.04;83.58
21504;BME280;10913;51.992;9.228;2023-05-08T07:45:11;100951.13;;;16.73;78.87
21504;BME280;10913;51.992;9.228;2023-05-08T07:47:37;100945.78;;;19.10;73.08
21504;BME280;10913;51.992;9.228;2023-05-08T07:50:03;100939.03;;;21.00;65.49
21504;BME280;10913;51.992;9.228;2023-05-08T07:52:29;100937.28;;;22.08;62.74
21504;BME280;10913;51.992;9.228;2023-05-08T07:54:54;100938.28;;;21.84;62.52
21504;BME280;10913;51.992;9.228;2023-05-08T07:57:20;100934.19;;;21.55;63.30
21504;BME280;10913;51.992;9.228;2023-05-08T07:59:45;100945.66;;;20.91;64.25
21504;BME280;10913;51.992;9.228;2023-05-08T08:02:10;100941.59;;;20.58;65.65
21504;BME280;10913;51.992;9.228;2023-05-08T08:04:36;100947.78;;;20.10;66.96
21504;BME280;10913;51.992;9.228;2023-05-08T08:07:01;100946.63;;;19.92;68.52
21504;BME280;10913;51.992;9.228;2023-05-08T08:09:27;100944.19;;;19.58;69.03
21504;BME280;10913;51.992;9.228;2023-05-08T08:11:52;100943.72;;;19.46;68.21
21504;BME280;10913;51.992;9.228;2023-05-08T08:14:17;100942.94;;;19.42;68.38
21504;BME280;10913;51.992;9.228;2023-05-08T08:16:43;100941.81;;;19.49;69.80
21504;BME280;10913;51.992;9.228;2023-05-08T08:19:08;100939.19;;;19.48;69.72
21504;BME280;10913;51.992;9.228;2023-05-08T08:21:35;100953.94;;;19.61;69.92
21504;BME280;10913;51.992;9.228;2023-05-08T08:24:00;100948.44;;;19.66;69.77
21504;BME280;10913;51.992;9.228;2023-05-08T08:26:26;100943.63;;;19.77;69.81
21504;BME280;10913;51.992;9.228;2023-05-08T08:28:51;100937.81;;;19.89;68.68
21504;BME280;10913;51.992;9.228;2023-05-08T08:31:16;100931.19;;;19.99;69.91
21504;BME280;10913;51.992;9.228;2023-05-08T08:33:43;100925.59;;;19.80;68.68
21504;BME280;10913;51.992;9.228;2023-05-08T08:36:13;100931.69;;;19.85;69.29
21504;BME280;10913;51.992;9.228;2023-05-08T08:38:38;100920.91;;;20.12;68.76
21504;BME280;10913;51.992;9.228;2023-05-08T08:41:03;100922.16;;;20.26;68.35
21504;BME280;10913;51.992;9.228;2023-05-08T08:43:29;100914.53;;;20.39;70.02
21504;BME280;10913;51.992;9.228;2023-05-08T08:45:57;100919.13;;;20.36;68.44
21504;BME280;10913;51.992;9.228;2023-05-08T08:48:27;100916.34;;;20.39;68.68
21504;BME280;10913;51.992;9.228;2023-05-08T08:50:58;100921.28;;;20.51;68.28
21504;BME280;10913;51.992;9.228;2023-05-08T08:53:30;100911.75;;;20.42;68.63
21504;BME280;10913;51.992;9.228;2023-05-08T08:56:00;100912.34;;;20.25;68.92
21504;BME280;10913;51.992;9.228;2023-05-08T09:00:59;100909.34;;;20.35;69.86
21504;BME280;10913;51.992;9.228;2023-05-08T09:03:25;100909.50;;;20.30;69.62
21504;BME280;10913;51.992;9.228;2023-05-08T09:05:51;100908.94;;;20.45;69.18
21504;BME280;10913;51.992;9.228;2023-05-08T09:08:18;100904.81;;;20.37;69.97
21504;BME280;10913;51.992;9.228;2023-05-08T09:10:43;100910.94;;;20.40;70.03
21504;BME280;10913;51.992;9.228;2023-05-08T09:13:09;100910.72;;;20.46;68.71
21504;BME280;10913;51.992;9.228;2023-05-08T09:15:35;100910.94;;;20.40;69.39
21504;BME280;10913;51.992;9.228;2023-05-08T09:18:01;100907.97;;;20.48;68.74
21504;BME280;10913;51.992;9.228;2023-05-08T09:20:27;100912.56;;;20.44;69.04
21504;BME280;10913;51.992;9.228;2023-05-08T09:22:53;100910.88;;;20.42;68.89
21504;BME280;10913;51.992;9.228;2023-05-08T09:25:19;100910.19;;;20.37;68.99
21504;BME280;10913;51.992;9.228;2023-05-08T09:27:44;100917.50;;;20.32;70.33
21504;BME280;10913;51.992;9.228;2023-05-08T09:30:11;100900.69;;;20.26;70.35
21504;BME280;10913;51.992;9.228;2023-05-08T09:32:39;100905.06;;;20.29;69.08
21504;BME280;10913;51.992;9.228;2023-05-08T09:35:07;100899.47;;;20.37;70.92
21504;BME280;10913;51.992;9.228;2023-05-08T09:37:33;100897.78;;;20.57;70.60
21504;BME280;10913;51.992;9.228;2023-05-08T09:40:20;100893.50;;;20.75;69.92
21504;BME280;10913;51.992;9.228;2023-05-08T09:42:46;100899.50;;;20.58;68.07
21504;BME280;10913;51.992;9.228;2023-05-08T09:45:26;100894.13;;;20.58;70.83
21504;BME280;10913;51.992;9.228;2023-05-08T09:47:52;100899.63;;;20.55;68.59
21504;BME280;10913;51.992;9.228;2023-05-08T09:50:17;100900.25;;;20.62;69.02
21504;BME280;10913;51.992;9.228;2023-05-08T09:52:46;100886.16;;;20.32;69.00
21504;BME280;10913;51.992;9.228;2023-05-08T09:55:11;100883.22;;;20.40;69.70
21504;BME280;10913;51.992;9.228;2023-05-08T09:57:39;100890.00;;;20.50;69.96
21504;BME280;10913;51.992;9.228;2023-05-08T10:00:15;100888.53;;;20.64;68.99
21504;BME280;10913;51.992;9.228;2023-05-08T10:02:52;100880.19;;;20.72;68.62
21504;BME280;10913;51.992;9.228;2023-05-08T10:07:49;100879.56;;;20.87;69.24
21504;BME280;10913;51.992;9.228;2023-05-08T10:10:21;100874.72;;;20.97;67.81
21504;BME280;10913;51.992;9.228;2023-05-08T10:12:47;100868.47;;;20.96;67.30
21504;BME280;10913;51.992;9.228;2023-05-08T10:15:12;100866.56;;;20.98;68.03
21504;BME280;10913;51.992;9.228;2023-05-08T10:17:45;100870.88;;;21.03;68.29
21504;BME280;10913;51.992;9.228;2023-05-08T10:20:14;100879.19;;;21.18;68.52
21504;BME280;10913;51.992;9.228;2023-05-08T10:22:42;100878.69;;;21.09;67.28
21504;BME280;10913;51.992;9.228;2023-05-08T10:25:11;100877.06;;;21.05;68.20
21504;BME280;10913;51.992;9.228;2023-05-08T10:27:47;100873.69;;;20.99;68.00
21504;BME280;10913;51.992;9.228;2023-05-08T10:30:18;100868.25;;;21.01;69.67
21504;BME280;10913;51.992;9.228;2023-05-08T10:32:45;100869.69;;;21.10;67.98
21504;BME280;10913;51.992;9.228;2023-05-08T10:35:13;100870.59;;;21.10;67.38
21504;BME280;10913;51.992;9.228;2023-05-08T10:37:39;100872.22;;;21.14;68.70
21504;BME280;10913;51.992;9.228;2023-05-08T10:40:07;100872.72;;;21.24;68.37
21504;BME280;10913;51.992;9.228;2023-05-08T10:42:33;100869.47;;;21.38;68.92
21504;BME280;10913;51.992;9.228;2023-05-08T10:45:03;100870.34;;;21.58;68.84
21504;BME280;10913;51.992;9.228;2023-05-08T10:47:50;100872.72;;;21.66;66.81
21504;BME280;10913;51.992;9.228;2023-05-08T10:53:43;100865.72;;;21.82;66.86
21504;BME280;10913;51.992;9.228;2023-05-08T10:55:50;100859.75;;;21.76;68.67
21504;BME280;10913;51.992;9.228;2023-05-08T11:03:31;100861.34;;;22.20;66.44
21504;BME280;10913;51.992;9.228;2023-05-08T11:05:58;100854.94;;;22.23;66.52
21504;BME280;10913;51.992;9.228;2023-05-08T11:08:26;100849.72;;;22.39;67.79
21504;BME280;10913;51.992;9.228;2023-05-08T11:11:02;100846.19;;;22.57;65.99
21504;BME280;10913;51.992;9.228;2023-05-08T11:13:35;100841.16;;;22.68;66.79
21504;BME280;10913;51.992;9.228;2023-05-08T11:16:01;100836.78;;;22.84;65.76
21504;BME280;10913;51.992;9.228;2023-05-08T11:18:28;100841.75;;;22.93;66.08
21504;BME280;10913;51.992;9.228;2023-05-08T11:23:26;100841.09;;;22.88;65.67
21504;BME280;10913;51.992;9.228;2023-05-08T11:26:07;100837.00;;;22.61;65.15
21504;BME280;10913;51.992;9.228;2023-05-08T11:28:38;100842.25;;;22.64;65.21
21504;BME280;10913;51.992;9.228;2023-05-08T11:31:06;100837.53;;;22.88;67.43
21504;BME280;10913;51.992;9.228;2023-05-08T11:33:35;100846.66;;;23.02;64.56
21504;BME280;10913;51.992;9.228;2023-05-08T11:36:18;100843.38;;;23.15;64.75
21504;BME280;10913;51.992;9.228;2023-05-08T11:39:08;100846.06;;;23.15;65.50
21504;BME280;10913;51.992;9.228;2023-05-08T11:41:37;100844.06;;;23.18;66.21
21504;BME280;10913;51.992;9.228;2023-05-08T11:44:17;100842.31;;;23.36;65.04
21504;BME280;10913;51.992;9.228;2023-05-08T11:46:54;100831.94;;;23.63;65.25
21504;BME280;10913;51.992;9.228;2023-05-08T11:49:25;100831.75;;;23.83;65.43
21504;BME280;10913;51.992;9.228;2023-05-08T11:51:52;100836.91;;;23.88;63.84
21504;BME280;10913;51.992;9.228;2023-05-08T11:54:22;100836.91;;;23.88;64.05
21504;BME280;10913;51.992;9.228;2023-05-08T11:56:49;100838.19;;;23.98;63.48
21504;BME280;10913;51.992;9.228;2023-05-08T11:59:16;100833.56;;;23.83;62.43
21504;BME280;10913;51.992;9.228;2023-05-08T12:01:42;100833.81;;;23.78;63.11
21504;BME280;10913;51.992;9.228;2023-05-08T12:04:09;100838.34;;;23.95;64.28
21504;BME280;10913;51.992;9.228;2023-05-08T12:06:36;100836.72;;;24.08;63.76
21504;BME280;10913;51.992;9.228;2023-05-08T12:09:08;100844.81;;;24.25;62.06
21504;BME280;10913;51.992;9.228;2023-05-08T12:11:34;100842.66;;;24.32;62.90
21504;BME280;10913;51.992;9.228;2023-05-08T12:13:59;100841.69;;;24.33;61.63
21504;BME280;10913;51.992;9.228;2023-05-08T12:16:25;100838.56;;;24.23;61.70
21504;BME280;10913;51.992;9.228;2023-05-08T12:18:51;100836.38;;;24.47;62.81
21504;BME280;10913;51.992;9.228;2023-05-08T12:21:18;100844.75;;;24.58;59.91
21504;BME280;10913;51.992;9.228;2023-05-08T12:23:44;100833.78;;;24.46;60.34
21504;BME280;10913;51.992;9.228;2023-05-08T12:26:09;100830.81;;;24.66;61.94
21504;BME280;10913;51.992;9.228;2023-05-08T12:28:37;100822.78;;;24.80;61.05
21504;BME280;10913;51.992;9.228;2023-05-08T12:31:03;100833.78;;;24.61;60.45
21504;BME280;10913;51.992;9.228;2023-05-08T12:33:28;100826.94;;;24.38;61.98
21504;BME280;10913;51.992;9.228;2023-05-08T12:35:55;100831.53;;;24.54;63.32
21504;BME280;10913;51.992;9.228;2023-05-08T12:38:27;100833.81;;;24.77;62.29
21504;BME280;10913;51.992;9.228;2023-05-08T12:40:53;100835.88;;;24.88;61.13
21504;BME280;10913;51.992;9.228;2023-05-08T12:43:34;100838.19;;;24.95;61.17
21504;BME280;10913;51.992;9.228;2023-05-08T12:46:01;100825.44;;;24.97;60.21
21504;BME280;10913;51.992;9.228;2023-05-08T12:48:27;100831.34;;;24.88;60.10
21504;BME280;10913;51.992;9.228;2023-05-08T12:50:53;100832.31;;;24.56;61.06
21504;BME280;10913;51.992;9.228;2023-05-08T12:53:19;100836.75;;;24.57;61.18
21504;BME280;10913;51.992;9.228;2023-05-08T12:58:17;100822.28;;;24.58;61.15
21504;BME280;10913;51.992;9.228;2023-05-08T13:00:48;100821.84;;;24.65;60.66
21504;BME280;10913;51.992;9.228;2023-05-08T13:03:27;100815.41;;;24.68;60.44
21504;BME280;10913;51.992;9.228;2023-05-08T13:05:55;100811.81;;;24.83;62.39
21504;BME280;10913;51.992;9.228;2023-05-08T13:08:29;100810.34;;;24.93;61.33
21504;BME280;10913;51.992;9.228;2023-05-08T13:10:56;100811.72;;;24.85;61.24
21504;BME280;10913;51.992;9.228;2023-05-08T13:13:23;100808.06;;;24.70;60.77
21504;BME280;10913;51.992;9.228;2023-05-08T13:15:51;100804.34;;;24.57;61.51
21504;BME280;10913;51.992;9.228;2023-05-08T13:18:17;100805.28;;;24.56;62.19
21504;BME280;10913;51.992;9.228;2023-05-08T13:20:43;100812.53;;;24.71;62.41
21504;BME280;10913;51.992;9.228;2023-05-08T13:23:09;100802.59;;;24.71;60.87
21504;BME280;10913;51.992;9.228;2023-05-08T13:25:38;100814.22;;;24.41;60.39
21504;BME280;10913;51.992;9.228;2023-05-08T13:28:05;100793.50;;;24.41;61.31
21504;BME280;10913;51.992;9.228;2023-05-08T13:30:31;100803.63;;;24.37;62.13
21504;BME280;10913;51.992;9.228;2023-05-08T13:32:57;100801.34;;;24.30;61.86
21504;BME280;10913;51.992;9.228;2023-05-08T13:35:23;100799.03;;;24.22;61.55
21504;BME280;10913;51.992;9.228;2023-05-08T13:37:49;100796.94;;;24.12;61.57